aviador You're here:

ZWWW Decoded Metar

URUMQI in CHINA
Report Time2017-03-28 06:00:00
UTC Time2017-03-28 06:11:48
Flight Rules ifr IFR
WindVRB at 4 kt
Visibility2500 m
Phenomena:Mist
Clouds:Scattered 033 Hf
Expected CloudBase > 2,400 ft AGL from Temp-Dew spread
CeilingNone
Temp08°C (ISA -3)
Dew Point02°C (66% RH)
AAT4.9°C
QNH1027 hPa
Density Alt1,450 ft
Elevation2,146 ft
Report Wrong Elevation
Raw Report
ZWWW 280600Z VRB02MPS 2500 BR SCT033 08/02 Q1027 NOSIG=

Extra information for ZWWW:More info

Metar Taf Metar & Taf Last 4 Metars F.Rules Stats Wind Profile Meteogram Temp Stats Airport Information Weather charts Add Link Nearby VenuesMetar ALERT Operation Metar Decoded Social comments